Главная страница
METAR-TAF:

METAR-TAF

Аэропорты :

Hemavan, Швеция

широта: 65-48-22N, долгота: 015-04-58E, высота над уровнем моря: 458 м

Текущие метеонаблюдения

Эта сводка был подготовлена 32 минут назад, в 09:50 UTC
Ветер 8 Узел от северо-западный
Температура -2°C
Влажность 69%
Давление 1007 hPa
Видимость 10 км и более

METAR: ESUT 250950Z AUTO 31008KT 9999 BKN028/// OVC035/// M02/M07 Q1007

Время: 11:22 (10:22 UTC)


TAF: отсутствует

Метеонаблюдения и прогнозы для более 4000 аэропортов (сводки METAR и TAF).

Имеющиеся станции представлены на карте желтыми и красными точками.

Чтобы увидеть название станции, наведите на нее мышь.

Затем щелкните, чтобы увидеть метеонаблюдения и метеопрогнозы.

Управление картой: чтобы увеличить масштаб, щелкните зеленые кнопки с черным крестиком; чтобы уменьшить масштаб, щелкните зеленую кнопку с тире; для просмотра соседних карт щелкайте зеленые стрелки.


METAR-TAF: